createdAt,value
2018-11-03T05:36:41.177Z,44.17
2018-11-03T05:40:59.728Z,42.27
2018-11-03T05:43:28.433Z,42.93
2018-11-03T05:45:57.193Z,39.63
2018-11-03T05:50:22.321Z,38.07
2018-11-03T05:52:51.045Z,38.37
2018-11-03T05:55:19.730Z,37.93
2018-11-03T05:57:48.418Z,38.57
2018-11-03T06:00:17.197Z,37.43
2018-11-03T06:02:45.933Z,36.13
2018-11-03T06:05:14.716Z,35.33
2018-11-03T06:07:43.428Z,37.00
2018-11-03T06:10:12.212Z,31.83
2018-11-03T06:12:40.932Z,35.10
2018-11-03T06:15:09.693Z,36.63
2018-11-03T06:17:38.469Z,36.33
2018-11-03T06:20:07.653Z,34.47
2018-11-03T06:22:36.426Z,33.03
2018-11-03T06:25:05.699Z,34.43
2018-11-03T06:27:34.384Z,35.97
2018-11-03T06:30:06.753Z,35.40
2018-11-03T06:32:35.507Z,35.00
2018-11-03T06:35:04.411Z,32.53
2018-11-03T06:37:33.137Z,32.83
2018-11-03T06:40:01.863Z,32.70
2018-11-03T06:42:30.627Z,33.63
2018-11-03T06:44:59.793Z,32.43
2018-11-03T06:47:28.571Z,33.63
2018-11-03T06:49:57.275Z,34.17
2018-11-03T06:52:26.037Z,31.87
2018-11-03T06:54:54.653Z,32.70
2018-11-03T06:57:23.436Z,33.93
2018-11-03T07:00:57.280Z,29.27
2018-11-03T07:03:26.564Z,30.47
2018-11-03T07:05:55.358Z,30.23
2018-11-03T07:08:24.315Z,30.17
2018-11-03T07:10:53.002Z,31.43
2018-11-03T07:13:21.854Z,31.97
2018-11-03T07:15:50.463Z,33.20
2018-11-03T07:18:19.213Z,32.77
2018-11-03T07:20:48.035Z,34.73
2018-11-03T07:23:16.692Z,33.07
2018-11-03T07:25:45.946Z,32.10
2018-11-03T07:28:14.677Z,31.73
2018-11-03T07:30:43.515Z,32.03
2018-11-03T07:33:12.281Z,34.20
2018-11-03T07:35:41.029Z,30.87
2018-11-03T07:38:09.785Z,29.63
2018-11-03T07:40:38.496Z,26.73
2018-11-03T07:43:07.264Z,28.33
2018-11-03T07:45:35.973Z,31.13
2018-11-03T07:48:05.052Z,27.07
2018-11-03T07:50:33.757Z,27.47
2018-11-03T07:53:02.474Z,27.50
2018-11-03T07:55:31.142Z,27.20
2018-11-03T07:57:59.871Z,30.20
2018-11-03T08:03:03.248Z,27.73
2018-11-03T08:05:31.916Z,29.23
2018-11-03T08:08:00.656Z,26.60
2018-11-03T08:10:29.454Z,26.13
2018-11-03T08:12:58.193Z,26.83
2018-11-03T08:15:26.997Z,24.53
2018-11-03T08:17:55.664Z,26.77
2018-11-03T08:20:24.395Z,27.00
2018-11-03T08:22:53.125Z,25.97
2018-11-03T08:25:21.836Z,26.67
2018-11-03T08:27:50.690Z,26.97
2018-11-03T08:30:19.475Z,26.87
2018-11-03T08:32:48.245Z,26.37
2018-11-03T08:35:16.944Z,26.37
2018-11-03T08:37:45.691Z,25.83
2018-11-03T08:40:14.426Z,23.73
2018-11-03T08:42:43.190Z,23.37
2018-11-03T08:45:12.315Z,22.30
2018-11-03T08:47:41.066Z,21.23
2018-11-03T08:50:11.265Z,21.87
2018-11-03T08:52:40.125Z,20.83
2018-11-03T08:55:10.182Z,20.73
2018-11-03T08:57:38.813Z,21.03
2018-11-03T09:00:11.293Z,21.70
2018-11-03T09:02:40.789Z,20.40
2018-11-03T09:05:10.024Z,20.50
2018-11-03T09:07:39.203Z,21.20
2018-11-03T09:10:10.145Z,21.10
2018-11-03T09:12:39.140Z,20.37
2018-11-03T09:15:10.285Z,19.20
2018-11-03T09:17:39.885Z,19.60
2018-11-03T09:20:09.667Z,16.50
2018-11-03T09:22:39.024Z,17.97
2018-11-03T09:25:10.000Z,16.97
2018-11-03T09:27:39.340Z,17.37
2018-11-03T09:30:10.647Z,15.70
2018-11-03T09:32:39.448Z,16.23
2018-11-03T09:35:08.920Z,15.27
2018-11-03T09:37:37.587Z,15.30
2018-11-03T09:40:08.178Z,15.47
2018-11-03T09:42:36.913Z,16.37
2018-11-03T09:45:06.173Z,15.93
2018-11-03T09:47:34.852Z,16.53
2018-11-03T09:50:03.730Z,16.20
2018-11-03T09:52:32.700Z,17.10
2018-11-03T09:55:01.425Z,16.47
2018-11-03T09:57:30.225Z,16.93
2018-11-03T09:59:58.911Z,15.23
2018-11-03T10:02:27.646Z,16.30
2018-11-03T10:04:56.333Z,17.03
2018-11-03T10:07:25.107Z,17.03
2018-11-03T10:09:53.909Z,16.40
2018-11-03T10:12:23.457Z,15.63
2018-11-03T10:14:52.190Z,15.90
2018-11-03T10:17:20.922Z,14.50
2018-11-03T10:19:49.642Z,13.87
2018-11-03T10:22:18.683Z,13.33
2018-11-03T10:24:47.533Z,13.07
2018-11-03T10:27:16.362Z,13.77
2018-11-03T10:29:45.118Z,13.73
2018-11-03T10:32:14.087Z,14.40
2018-11-03T10:34:51.234Z,13.70
2018-11-03T10:37:20.019Z,14.33
2018-11-03T10:39:48.688Z,13.90
2018-11-03T10:42:17.416Z,13.83
2018-11-03T10:44:46.073Z,13.53
2018-11-03T10:47:14.758Z,14.17
2018-11-03T10:49:43.818Z,15.67
2018-11-03T10:52:13.486Z,13.43
2018-11-03T10:54:42.269Z,14.23
2018-11-03T10:57:11.463Z,12.33
2018-11-03T10:59:40.204Z,13.18
2018-11-03T11:02:14.012Z,15.25
2018-11-03T11:04:47.927Z,11.83
2018-11-03T11:07:21.779Z,12.78
2018-11-03T11:09:55.665Z,11.75
2018-11-03T11:12:29.625Z,12.75
2018-11-03T11:14:58.406Z,11.80
2018-11-03T11:17:27.105Z,11.20
2018-11-03T11:19:55.766Z,11.15
2018-11-03T11:22:24.493Z,11.50
2018-11-03T11:24:53.322Z,10.75
2018-11-03T11:27:22.014Z,10.98
2018-11-03T11:29:50.768Z,10.95
2018-11-03T11:32:19.540Z,10.78
2018-11-03T11:34:51.247Z,9.75
2018-11-03T11:37:20.020Z,9.93
2018-11-03T11:39:48.669Z,9.58
2018-11-03T11:42:17.531Z,7.83
2018-11-03T11:44:46.165Z,8.28
2018-11-03T11:47:14.809Z,7.30
2018-11-03T11:49:43.484Z,7.58
2018-11-03T11:52:12.197Z,6.75
2018-11-03T11:54:41.056Z,7.80
2018-11-03T11:57:09.728Z,7.72
2018-11-03T11:59:38.497Z,7.33
2018-11-03T12:02:07.312Z,6.65
2018-11-03T12:04:36.044Z,6.42
2018-11-03T12:07:04.770Z,6.08
2018-11-03T12:09:33.510Z,6.15
2018-11-03T12:12:02.218Z,5.80
2018-11-03T12:14:30.912Z,5.40
2018-11-03T12:16:59.581Z,5.75
2018-11-03T12:19:28.264Z,4.55
2018-11-03T12:21:56.924Z,3.80
2018-11-03T12:24:25.641Z,4.25
2018-11-03T12:26:54.298Z,3.90
2018-11-03T12:29:22.978Z,3.75
2018-11-03T12:31:51.662Z,3.95
2018-11-03T12:34:20.408Z,4.22
2018-11-03T12:36:49.053Z,3.90
2018-11-03T12:39:17.841Z,3.75
2018-11-03T12:41:46.605Z,5.00
2018-11-03T12:44:15.306Z,3.85
2018-11-03T12:46:44.082Z,3.70
2018-11-03T12:49:12.747Z,4.33
2018-11-03T12:51:41.560Z,4.58
2018-11-03T12:54:10.262Z,3.95
2018-11-03T12:56:38.949Z,4.28
2018-11-03T12:59:07.747Z,4.85
2018-11-03T13:01:36.368Z,5.28
2018-11-03T13:04:05.208Z,5.42
2018-11-03T13:06:33.916Z,5.50
2018-11-03T13:09:02.764Z,5.58
2018-11-03T13:11:31.418Z,5.10
2018-11-03T13:14:00.152Z,5.37
2018-11-03T13:16:28.850Z,4.80
2018-11-03T13:18:57.537Z,4.42
2018-11-03T13:21:26.319Z,4.33
2018-11-03T13:23:55.016Z,4.50
2018-11-03T13:26:23.682Z,4.25
2018-11-03T13:28:52.357Z,4.40
2018-11-03T13:31:21.049Z,14.03
2018-11-03T13:33:49.781Z,4.33
2018-11-03T13:36:18.558Z,5.60
2018-11-03T13:38:47.829Z,4.50
2018-11-03T13:41:16.524Z,4.77
2018-11-03T13:43:45.250Z,5.30
2018-11-03T13:46:14.038Z,4.40
2018-11-03T13:48:42.669Z,5.27
2018-11-03T13:51:11.349Z,4.60
2018-11-03T13:53:39.998Z,5.17
2018-11-03T13:56:08.761Z,4.60
2018-11-03T13:58:37.455Z,5.00
2018-11-03T14:01:06.510Z,4.60
2018-11-03T14:03:35.836Z,5.60
2018-11-03T14:06:04.589Z,5.27
2018-11-03T14:08:33.966Z,9.87
2018-11-03T14:11:02.638Z,5.90
2018-11-03T14:13:31.278Z,5.73
2018-11-03T14:15:59.952Z,6.07
2018-11-03T14:18:28.641Z,5.83
2018-11-03T14:20:57.327Z,6.80
2018-11-03T14:23:26.113Z,6.90
2018-11-03T14:25:54.758Z,6.53
2018-11-03T14:28:23.704Z,7.33
2018-11-03T14:30:52.406Z,7.97
